sensor_id;sensor_type;location;lat;lon;timestamp;temperature;humidity
56234;DHT22;42141;53.240;6.580;2023-06-22T00:01:54;17.40;99.90
56234;DHT22;42141;53.240;6.580;2023-06-22T00:04:20;17.40;99.90
56234;DHT22;42141;53.240;6.580;2023-06-22T00:06:46;17.40;99.90
56234;DHT22;42141;53.240;6.580;2023-06-22T00:09:11;17.30;99.90
56234;DHT22;42141;53.240;6.580;2023-06-22T00:11:37;17.30;99.90
56234;DHT22;42141;53.240;6.580;2023-06-22T00:14:04;17.20;99.90
56234;DHT22;42141;53.240;6.580;2023-06-22T00:16:31;17.20;99.90
56234;DHT22;42141;53.240;6.580;2023-06-22T00:18:56;17.20;99.90
56234;DHT22;42141;53.240;6.580;2023-06-22T00:21:26;17.20;99.90
56234;DHT22;42141;53.240;6.580;2023-06-22T00:23:52;17.10;99.90
56234;DHT22;42141;53.240;6.580;2023-06-22T00:26:18;17.10;99.90
56234;DHT22;42141;53.240;6.580;2023-06-22T00:28:44;17.00;99.90
56234;DHT22;42141;53.240;6.580;2023-06-22T00:31:10;17.00;99.90
56234;DHT22;42141;53.240;6.580;2023-06-22T00:33:35;16.90;99.90
56234;DHT22;42141;53.240;6.580;2023-06-22T00:36:01;16.90;99.90
56234;DHT22;42141;53.240;6.580;2023-06-22T00:38:28;16.90;99.90
56234;DHT22;42141;53.240;6.580;2023-06-22T00:40:54;16.80;99.90
56234;DHT22;42141;53.240;6.580;2023-06-22T00:43:20;16.80;99.90
56234;DHT22;42141;53.240;6.580;2023-06-22T00:45:46;16.80;99.90
56234;DHT22;42141;53.240;6.580;2023-06-22T00:48:12;16.70;99.90
56234;DHT22;42141;53.240;6.580;2023-06-22T00:50:39;16.70;99.90
56234;DHT22;42141;53.240;6.580;2023-06-22T00:53:06;16.70;99.90
56234;DHT22;42141;53.240;6.580;2023-06-22T00:55:37;16.70;99.90
56234;DHT22;42141;53.240;6.580;2023-06-22T00:58:06;16.60;99.90
56234;DHT22;42141;53.240;6.580;2023-06-22T01:00:33;16.60;99.90
56234;DHT22;42141;53.240;6.580;2023-06-22T01:03:01;16.60;99.90
56234;DHT22;42141;53.240;6.580;2023-06-22T01:05:27;16.60;99.90
56234;DHT22;42141;53.240;6.580;2023-06-22T01:08:26;16.60;99.90
56234;DHT22;42141;53.240;6.580;2023-06-22T01:11:01;16.60;99.90
56234;DHT22;42141;53.240;6.580;2023-06-22T01:13:41;16.60;99.90
56234;DHT22;42141;53.240;6.580;2023-06-22T01:16:16;16.70;99.90
56234;DHT22;42141;53.240;6.580;2023-06-22T01:18:44;16.70;99.90
56234;DHT22;42141;53.240;6.580;2023-06-22T01:21:16;16.70;99.90
56234;DHT22;42141;53.240;6.580;2023-06-22T01:27:05;16.60;99.90
56234;DHT22;42141;53.240;6.580;2023-06-22T01:29:35;16.60;99.90
56234;DHT22;42141;53.240;6.580;2023-06-22T01:32:03;16.50;99.90
56234;DHT22;42141;53.240;6.580;2023-06-22T01:34:31;16.50;99.90
56234;DHT22;42141;53.240;6.580;2023-06-22T01:36:58;16.50;99.90
56234;DHT22;42141;53.240;6.580;2023-06-22T01:39:25;16.50;99.90
56234;DHT22;42141;53.240;6.580;2023-06-22T01:41:52;16.40;99.90
56234;DHT22;42141;53.240;6.580;2023-06-22T01:44:19;16.50;99.90
56234;DHT22;42141;53.240;6.580;2023-06-22T01:46:45;16.40;99.90
56234;DHT22;42141;53.240;6.580;2023-06-22T01:49:11;16.40;99.90
56234;DHT22;42141;53.240;6.580;2023-06-22T01:51:36;16.40;99.90
56234;DHT22;42141;53.240;6.580;2023-06-22T01:54:02;16.40;99.90
56234;DHT22;42141;53.240;6.580;2023-06-22T01:56:28;16.30;99.90
56234;DHT22;42141;53.240;6.580;2023-06-22T01:59:25;16.30;99.90
56234;DHT22;42141;53.240;6.580;2023-06-22T02:02:00;16.30;99.90
56234;DHT22;42141;53.240;6.580;2023-06-22T02:04:31;16.30;99.90
56234;DHT22;42141;53.240;6.580;2023-06-22T02:06:59;16.30;99.90
56234;DHT22;42141;53.240;6.580;2023-06-22T02:09:28;16.30;99.90
56234;DHT22;42141;53.240;6.580;2023-06-22T02:11:56;16.30;99.90
56234;DHT22;42141;53.240;6.580;2023-06-22T02:14:23;16.30;99.90
56234;DHT22;42141;53.240;6.580;2023-06-22T02:16:51;16.30;99.90
56234;DHT22;42141;53.240;6.580;2023-06-22T02:19:16;16.20;99.90
56234;DHT22;42141;53.240;6.580;2023-06-22T02:21:44;16.20;99.90
56234;DHT22;42141;53.240;6.580;2023-06-22T02:24:10;16.20;99.90
56234;DHT22;42141;53.240;6.580;2023-06-22T02:26:36;16.20;99.90
56234;DHT22;42141;53.240;6.580;2023-06-22T02:29:03;16.10;99.90
56234;DHT22;42141;53.240;6.580;2023-06-22T02:31:29;16.20;99.90
56234;DHT22;42141;53.240;6.580;2023-06-22T02:33:57;16.20;99.90
56234;DHT22;42141;53.240;6.580;2023-06-22T02:36:23;16.10;99.90
56234;DHT22;42141;53.240;6.580;2023-06-22T02:38:50;16.10;99.90
56234;DHT22;42141;53.240;6.580;2023-06-22T02:41:16;16.10;99.90
56234;DHT22;42141;53.240;6.580;2023-06-22T02:43:45;16.10;99.90
56234;DHT22;42141;53.240;6.580;2023-06-22T02:46:11;16.10;99.90
56234;DHT22;42141;53.240;6.580;2023-06-22T02:48:39;14.50;99.90
56234;DHT22;42141;53.240;6.580;2023-06-22T02:51:05;16.10;99.90
56234;DHT22;42141;53.240;6.580;2023-06-22T02:53:30;16.00;99.90
56234;DHT22;42141;53.240;6.580;2023-06-22T02:55:57;16.00;99.90
56234;DHT22;42141;53.240;6.580;2023-06-22T02:58:22;16.00;99.90
56234;DHT22;42141;53.240;6.580;2023-06-22T03:00:49;16.00;99.90
56234;DHT22;42141;53.240;6.580;2023-06-22T03:03:19;16.00;99.90
56234;DHT22;42141;53.240;6.580;2023-06-22T03:05:45;15.90;99.90
56234;DHT22;42141;53.240;6.580;2023-06-22T03:08:11;16.00;99.90
56234;DHT22;42141;53.240;6.580;2023-06-22T03:10:36;15.90;99.90
56234;DHT22;42141;53.240;6.580;2023-06-22T03:13:03;15.90;99.90
56234;DHT22;42141;53.240;6.580;2023-06-22T03:15:28;15.90;99.90
56234;DHT22;42141;53.240;6.580;2023-06-22T03:17:58;15.80;99.90
56234;DHT22;42141;53.240;6.580;2023-06-22T03:20:24;15.80;99.90
56234;DHT22;42141;53.240;6.580;2023-06-22T03:22:50;15.80;99.90
56234;DHT22;42141;53.240;6.580;2023-06-22T03:25:16;15.80;99.90
56234;DHT22;42141;53.240;6.580;2023-06-22T03:27:43;15.80;99.90
56234;DHT22;42141;53.240;6.580;2023-06-22T03:30:11;15.80;99.90
56234;DHT22;42141;53.240;6.580;2023-06-22T03:32:37;15.80;99.90
56234;DHT22;42141;53.240;6.580;2023-06-22T03:35:03;15.80;99.90
56234;DHT22;42141;53.240;6.580;2023-06-22T03:37:29;15.80;99.90
56234;DHT22;42141;53.240;6.580;2023-06-22T03:39:55;15.70;99.90
56234;DHT22;42141;53.240;6.580;2023-06-22T03:42:21;15.70;99.90
56234;DHT22;42141;53.240;6.580;2023-06-22T03:44:47;15.70;99.90
56234;DHT22;42141;53.240;6.580;2023-06-22T03:47:13;15.70;99.90
56234;DHT22;42141;53.240;6.580;2023-06-22T03:49:39;15.80;99.90
56234;DHT22;42141;53.240;6.580;2023-06-22T03:52:05;15.80;99.90
56234;DHT22;42141;53.240;6.580;2023-06-22T03:54:31;15.80;99.90
56234;DHT22;42141;53.240;6.580;2023-06-22T03:56:57;15.80;99.90
56234;DHT22;42141;53.240;6.580;2023-06-22T03:59:23;15.80;99.90
56234;DHT22;42141;53.240;6.580;2023-06-22T04:01:49;15.80;99.90
56234;DHT22;42141;53.240;6.580;2023-06-22T04:04:18;15.90;99.90
56234;DHT22;42141;53.240;6.580;2023-06-22T04:06:43;15.90;99.90
56234;DHT22;42141;53.240;6.580;2023-06-22T04:09:09;15.90;99.90
56234;DHT22;42141;53.240;6.580;2023-06-22T04:11:35;15.90;99.90
56234;DHT22;42141;53.240;6.580;2023-06-22T04:14:01;16.00;99.90
56234;DHT22;42141;53.240;6.580;2023-06-22T04:16:26;16.10;99.90
56234;DHT22;42141;53.240;6.580;2023-06-22T04:18:52;16.10;99.90
56234;DHT22;42141;53.240;6.580;2023-06-22T04:21:18;16.10;99.90
56234;DHT22;42141;53.240;6.580;2023-06-22T04:23:45;16.20;99.90
56234;DHT22;42141;53.240;6.580;2023-06-22T04:26:12;16.30;99.90
56234;DHT22;42141;53.240;6.580;2023-06-22T04:28:39;16.30;99.90
56234;DHT22;42141;53.240;6.580;2023-06-22T04:31:05;16.40;99.90
56234;DHT22;42141;53.240;6.580;2023-06-22T04:33:31;16.50;99.90
56234;DHT22;42141;53.240;6.580;2023-06-22T04:35:57;16.50;99.90
56234;DHT22;42141;53.240;6.580;2023-06-22T04:38:23;16.50;99.90
56234;DHT22;42141;53.240;6.580;2023-06-22T04:40:50;16.60;99.90
56234;DHT22;42141;53.240;6.580;2023-06-22T04:43:16;16.60;99.90
56234;DHT22;42141;53.240;6.580;2023-06-22T04:45:41;16.70;99.90
56234;DHT22;42141;53.240;6.580;2023-06-22T04:48:07;16.80;99.90
56234;DHT22;42141;53.240;6.580;2023-06-22T04:50:36;16.90;99.90
56234;DHT22;42141;53.240;6.580;2023-06-22T04:53:04;17.00;99.90
56234;DHT22;42141;53.240;6.580;2023-06-22T04:55:32;17.00;99.90
56234;DHT22;42141;53.240;6.580;2023-06-22T04:57:57;17.10;99.90
56234;DHT22;42141;53.240;6.580;2023-06-22T05:00:30;17.20;99.90
56234;DHT22;42141;53.240;6.580;2023-06-22T05:02:57;17.20;99.90
56234;DHT22;42141;53.240;6.580;2023-06-22T05:05:23;17.30;99.90
56234;DHT22;42141;53.240;6.580;2023-06-22T05:07:51;17.40;99.90
56234;DHT22;42141;53.240;6.580;2023-06-22T05:10:19;17.50;99.90
56234;DHT22;42141;53.240;6.580;2023-06-22T05:12:46;17.50;99.90
56234;DHT22;42141;53.240;6.580;2023-06-22T05:15:11;17.60;99.90
56234;DHT22;42141;53.240;6.580;2023-06-22T05:17:37;17.70;99.90
56234;DHT22;42141;53.240;6.580;2023-06-22T05:20:12;17.70;99.90
56234;DHT22;42141;53.240;6.580;2023-06-22T05:22:39;17.80;99.90
56234;DHT22;42141;53.240;6.580;2023-06-22T05:25:08;17.90;99.90
56234;DHT22;42141;53.240;6.580;2023-06-22T05:27:34;18.00;99.90
56234;DHT22;42141;53.240;6.580;2023-06-22T05:29:59;18.00;99.90
56234;DHT22;42141;53.240;6.580;2023-06-22T05:32:25;18.10;99.90
56234;DHT22;42141;53.240;6.580;2023-06-22T05:34:50;18.20;99.90
56234;DHT22;42141;53.240;6.580;2023-06-22T05:37:16;18.20;99.90
56234;DHT22;42141;53.240;6.580;2023-06-22T05:39:42;18.30;99.90
56234;DHT22;42141;53.240;6.580;2023-06-22T05:42:08;18.40;99.90
56234;DHT22;42141;53.240;6.580;2023-06-22T05:44:34;18.60;99.90
56234;DHT22;42141;53.240;6.580;2023-06-22T05:46:59;18.60;99.90
56234;DHT22;42141;53.240;6.580;2023-06-22T05:49:25;18.70;99.90
56234;DHT22;42141;53.240;6.580;2023-06-22T05:51:58;18.90;99.90
56234;DHT22;42141;53.240;6.580;2023-06-22T05:54:24;19.00;99.90
56234;DHT22;42141;53.240;6.580;2023-06-22T05:56:49;19.10;99.90
56234;DHT22;42141;53.240;6.580;2023-06-22T05:59:15;19.20;99.90
56234;DHT22;42141;53.240;6.580;2023-06-22T06:01:41;19.30;99.90
56234;DHT22;42141;53.240;6.580;2023-06-22T06:04:06;19.30;99.90
56234;DHT22;42141;53.240;6.580;2023-06-22T06:06:35;19.40;99.90
56234;DHT22;42141;53.240;6.580;2023-06-22T06:09:04;19.50;99.90
56234;DHT22;42141;53.240;6.580;2023-06-22T06:11:29;19.60;99.90
56234;DHT22;42141;53.240;6.580;2023-06-22T06:13:55;19.60;99.90
56234;DHT22;42141;53.240;6.580;2023-06-22T06:16:22;19.70;99.90
56234;DHT22;42141;53.240;6.580;2023-06-22T06:18:49;19.80;99.90
56234;DHT22;42141;53.240;6.580;2023-06-22T06:21:16;19.80;99.90
56234;DHT22;42141;53.240;6.580;2023-06-22T06:23:42;19.90;99.90
56234;DHT22;42141;53.240;6.580;2023-06-22T06:26:08;20.00;99.90
56234;DHT22;42141;53.240;6.580;2023-06-22T06:28:35;20.10;99.90
56234;DHT22;42141;53.240;6.580;2023-06-22T06:31:00;20.20;99.90
56234;DHT22;42141;53.240;6.580;2023-06-22T06:33:29;20.30;99.90
56234;DHT22;42141;53.240;6.580;2023-06-22T06:35:57;20.50;99.90
56234;DHT22;42141;53.240;6.580;2023-06-22T06:38:22;20.60;99.90
56234;DHT22;42141;53.240;6.580;2023-06-22T06:40:50;20.70;99.90
56234;DHT22;42141;53.240;6.580;2023-06-22T06:43:15;20.80;99.90
56234;DHT22;42141;53.240;6.580;2023-06-22T06:45:41;20.80;99.90
56234;DHT22;42141;53.240;6.580;2023-06-22T06:48:07;21.00;99.90
56234;DHT22;42141;53.240;6.580;2023-06-22T06:50:32;21.10;99.90
56234;DHT22;42141;53.240;6.580;2023-06-22T06:52:58;21.10;99.90
56234;DHT22;42141;53.240;6.580;2023-06-22T06:55:24;21.20;99.90
56234;DHT22;42141;53.240;6.580;2023-06-22T06:57:50;21.30;99.90
56234;DHT22;42141;53.240;6.580;2023-06-22T07:00:18;21.40;99.90
56234;DHT22;42141;53.240;6.580;2023-06-22T07:02:45;21.40;99.90
56234;DHT22;42141;53.240;6.580;2023-06-22T07:05:11;21.50;99.90
56234;DHT22;42141;53.240;6.580;2023-06-22T07:07:37;21.70;99.90
56234;DHT22;42141;53.240;6.580;2023-06-22T07:10:07;21.80;99.90
56234;DHT22;42141;53.240;6.580;2023-06-22T07:12:33;21.80;99.90
56234;DHT22;42141;53.240;6.580;2023-06-22T07:15:06;22.00;99.90
56234;DHT22;42141;53.240;6.580;2023-06-22T07:17:38;22.00;99.90
56234;DHT22;42141;53.240;6.580;2023-06-22T07:20:08;21.80;99.90
56234;DHT22;42141;53.240;6.580;2023-06-22T07:22:43;22.30;99.90
56234;DHT22;42141;53.240;6.580;2023-06-22T07:25:10;22.40;99.90
56234;DHT22;42141;53.240;6.580;2023-06-22T07:27:43;22.60;99.90
56234;DHT22;42141;53.240;6.580;2023-06-22T07:30:09;22.60;99.90
56234;DHT22;42141;53.240;6.580;2023-06-22T07:32:37;22.70;99.90
56234;DHT22;42141;53.240;6.580;2023-06-22T07:35:03;22.70;99.90
56234;DHT22;42141;53.240;6.580;2023-06-22T07:37:29;22.80;99.90
56234;DHT22;42141;53.240;6.580;2023-06-22T07:39:55;22.80;99.90
56234;DHT22;42141;53.240;6.580;2023-06-22T07:42:27;22.90;99.90
56234;DHT22;42141;53.240;6.580;2023-06-22T07:44:54;22.90;99.90
56234;DHT22;42141;53.240;6.580;2023-06-22T07:47:20;23.00;99.90
56234;DHT22;42141;53.240;6.580;2023-06-22T07:49:50;23.00;99.90
56234;DHT22;42141;53.240;6.580;2023-06-22T07:52:16;23.00;99.90
56234;DHT22;42141;53.240;6.580;2023-06-22T07:54:45;23.10;99.90
56234;DHT22;42141;53.240;6.580;2023-06-22T07:57:10;23.10;99.90
56234;DHT22;42141;53.240;6.580;2023-06-22T07:59:36;23.20;99.90
56234;DHT22;42141;53.240;6.580;2023-06-22T08:02:03;23.20;99.90
56234;DHT22;42141;53.240;6.580;2023-06-22T08:04:29;23.30;99.90
56234;DHT22;42141;53.240;6.580;2023-06-22T08:06:56;23.30;99.90
56234;DHT22;42141;53.240;6.580;2023-06-22T08:09:22;23.40;99.90
56234;DHT22;42141;53.240;6.580;2023-06-22T08:11:48;23.60;99.90
56234;DHT22;42141;53.240;6.580;2023-06-22T08:14:14;23.60;99.90
56234;DHT22;42141;53.240;6.580;2023-06-22T08:16:41;23.70;99.90
56234;DHT22;42141;53.240;6.580;2023-06-22T08:19:07;23.80;99.90
56234;DHT22;42141;53.240;6.580;2023-06-22T08:21:33;23.80;99.90
56234;DHT22;42141;53.240;6.580;2023-06-22T08:23:59;23.80;99.90
56234;DHT22;42141;53.240;6.580;2023-06-22T08:26:24;23.80;99.90
56234;DHT22;42141;53.240;6.580;2023-06-22T08:28:50;23.90;99.90
56234;DHT22;42141;53.240;6.580;2023-06-22T08:31:16;23.90;99.90
56234;DHT22;42141;53.240;6.580;2023-06-22T08:33:41;23.90;99.90
56234;DHT22;42141;53.240;6.580;2023-06-22T08:36:08;24.00;99.90
56234;DHT22;42141;53.240;6.580;2023-06-22T08:38:36;24.10;99.90
56234;DHT22;42141;53.240;6.580;2023-06-22T08:41:02;24.20;99.90
56234;DHT22;42141;53.240;6.580;2023-06-22T08:43:28;24.30;99.90
56234;DHT22;42141;53.240;6.580;2023-06-22T08:45:55;24.30;99.90
56234;DHT22;42141;53.240;6.580;2023-06-22T08:48:21;24.40;99.90
56234;DHT22;42141;53.240;6.580;2023-06-22T08:50:46;24.40;99.90
56234;DHT22;42141;53.240;6.580;2023-06-22T08:53:12;24.50;99.90
56234;DHT22;42141;53.240;6.580;2023-06-22T08:55:38;24.60;99.90
56234;DHT22;42141;53.240;6.580;2023-06-22T08:58:04;24.70;99.90
56234;DHT22;42141;53.240;6.580;2023-06-22T09:00:30;24.80;99.90
56234;DHT22;42141;53.240;6.580;2023-06-22T09:03:00;24.80;99.90
56234;DHT22;42141;53.240;6.580;2023-06-22T09:05:25;24.90;99.90
56234;DHT22;42141;53.240;6.580;2023-06-22T09:07:51;25.00;99.90
56234;DHT22;42141;53.240;6.580;2023-06-22T09:10:17;25.10;99.90
56234;DHT22;42141;53.240;6.580;2023-06-22T09:12:44;25.10;99.90
56234;DHT22;42141;53.240;6.580;2023-06-22T09:15:09;25.30;99.90
56234;DHT22;42141;53.240;6.580;2023-06-22T09:17:35;25.40;99.90
56234;DHT22;42141;53.240;6.580;2023-06-22T09:20:02;25.40;99.90
56234;DHT22;42141;53.240;6.580;2023-06-22T09:22:32;25.50;99.90
56234;DHT22;42141;53.240;6.580;2023-06-22T09:24:58;25.60;99.90
56234;DHT22;42141;53.240;6.580;2023-06-22T09:27:25;25.60;99.80
56234;DHT22;42141;53.240;6.580;2023-06-22T09:29:51;26.70;99.90
56234;DHT22;42141;53.240;6.580;2023-06-22T09:32:16;25.70;99.70
56234;DHT22;42141;53.240;6.580;2023-06-22T09:34:42;25.70;99.80
56234;DHT22;42141;53.240;6.580;2023-06-22T09:37:08;25.70;99.70
56234;DHT22;42141;53.240;6.580;2023-06-22T09:39:33;25.80;99.50
56234;DHT22;42141;53.240;6.580;2023-06-22T09:42:00;25.80;99.40
56234;DHT22;42141;53.240;6.580;2023-06-22T09:44:26;25.90;99.50
56234;DHT22;42141;53.240;6.580;2023-06-22T09:46:52;26.00;99.60
56234;DHT22;42141;53.240;6.580;2023-06-22T09:49:18;26.00;99.20
56234;DHT22;42141;53.240;6.580;2023-06-22T09:51:44;25.00;98.50
56234;DHT22;42141;53.240;6.580;2023-06-22T09:54:09;26.30;98.70
56234;DHT22;42141;53.240;6.580;2023-06-22T09:56:35;26.30;98.50
56234;DHT22;42141;53.240;6.580;2023-06-22T09:59:03;26.40;98.50
56234;DHT22;42141;53.240;6.580;2023-06-22T10:01:28;26.50;98.30
56234;DHT22;42141;53.240;6.580;2023-06-22T10:03:55;26.60;97.90
56234;DHT22;42141;53.240;6.580;2023-06-22T10:06:22;26.70;97.90
56234;DHT22;42141;53.240;6.580;2023-06-22T10:08:51;26.70;97.70
56234;DHT22;42141;53.240;6.580;2023-06-22T10:11:17;26.70;97.60
56234;DHT22;42141;53.240;6.580;2023-06-22T10:13:43;26.60;97.60
56234;DHT22;42141;53.240;6.580;2023-06-22T10:16:08;26.70;97.30
56234;DHT22;42141;53.240;6.580;2023-06-22T10:18:34;25.50;97.00
56234;DHT22;42141;53.240;6.580;2023-06-22T10:21:00;26.90;97.30
56234;DHT22;42141;53.240;6.580;2023-06-22T10:23:26;26.00;96.90
56234;DHT22;42141;53.240;6.580;2023-06-22T10:25:52;27.00;96.90
56234;DHT22;42141;53.240;6.580;2023-06-22T10:28:18;27.10;96.90
56234;DHT22;42141;53.240;6.580;2023-06-22T10:30:43;27.00;96.60
56234;DHT22;42141;53.240;6.580;2023-06-22T10:33:11;26.80;96.70
56234;DHT22;42141;53.240;6.580;2023-06-22T10:35:37;26.60;96.90
56234;DHT22;42141;53.240;6.580;2023-06-22T10:38:03;26.50;97.10
56234;DHT22;42141;53.240;6.580;2023-06-22T10:40:30;26.40;97.30
56234;DHT22;42141;53.240;6.580;2023-06-22T10:42:55;26.30;97.30
56234;DHT22;42141;53.240;6.580;2023-06-22T10:45:24;26.30;97.10
56234;DHT22;42141;53.240;6.580;2023-06-22T10:47:51;26.10;96.90
56234;DHT22;42141;53.240;6.580;2023-06-22T10:50:17;26.40;96.80
56234;DHT22;42141;53.240;6.580;2023-06-22T10:52:43;26.60;96.80
56234;DHT22;42141;53.240;6.580;2023-06-22T10:55:10;26.70;96.80
56234;DHT22;42141;53.240;6.580;2023-06-22T10:57:36;26.90;96.60
56234;DHT22;42141;53.240;6.580;2023-06-22T11:00:02;27.10;96.60
56234;DHT22;42141;53.240;6.580;2023-06-22T11:02:31;27.30;96.30
56234;DHT22;42141;53.240;6.580;2023-06-22T11:04:57;27.40;95.90
56234;DHT22;42141;53.240;6.580;2023-06-22T11:07:26;27.50;95.70
56234;DHT22;42141;53.240;6.580;2023-06-22T11:09:54;27.60;95.30
56234;DHT22;42141;53.240;6.580;2023-06-22T11:12:20;27.60;95.60
56234;DHT22;42141;53.240;6.580;2023-06-22T11:14:45;27.70;95.40
56234;DHT22;42141;53.240;6.580;2023-06-22T11:17:11;27.80;95.00
56234;DHT22;42141;53.240;6.580;2023-06-22T11:19:37;27.90;95.00
56234;DHT22;42141;53.240;6.580;2023-06-22T11:22:03;28.00;94.90
56234;DHT22;42141;53.240;6.580;2023-06-22T11:24:28;28.00;94.80
56234;DHT22;42141;53.240;6.580;2023-06-22T11:26:54;28.20;94.70
56234;DHT22;42141;53.240;6.580;2023-06-22T11:29:20;28.20;94.50
56234;DHT22;42141;53.240;6.580;2023-06-22T11:31:45;28.00;94.40
56234;DHT22;42141;53.240;6.580;2023-06-22T11:34:11;27.90;94.20
56234;DHT22;42141;53.240;6.580;2023-06-22T11:36:40;27.80;94.10
56234;DHT22;42141;53.240;6.580;2023-06-22T11:39:11;27.50;93.90
56234;DHT22;42141;53.240;6.580;2023-06-22T11:41:39;27.50;94.30
56234;DHT22;42141;53.240;6.580;2023-06-22T11:44:05;27.50;95.30
56234;DHT22;42141;53.240;6.580;2023-06-22T11:46:32;27.60;95.00
56234;DHT22;42141;53.240;6.580;2023-06-22T11:48:58;27.70;94.70
56234;DHT22;42141;53.240;6.580;2023-06-22T11:51:24;27.40;94.70
56234;DHT22;42141;53.240;6.580;2023-06-22T11:53:49;27.80;94.70
56234;DHT22;42141;53.240;6.580;2023-06-22T11:56:15;27.80;94.40
56234;DHT22;42141;53.240;6.580;2023-06-22T11:58:41;28.70;95.10
56234;DHT22;42141;53.240;6.580;2023-06-22T12:01:07;27.70;94.40
56234;DHT22;42141;53.240;6.580;2023-06-22T12:03:33;27.60;94.30
56234;DHT22;42141;53.240;6.580;2023-06-22T12:06:00;27.60;94.40
56234;DHT22;42141;53.240;6.580;2023-06-22T12:08:27;27.00;94.00
56234;DHT22;42141;53.240;6.580;2023-06-22T12:10:53;27.50;94.40
56234;DHT22;42141;53.240;6.580;2023-06-22T12:13:19;27.40;94.20
56234;DHT22;42141;53.240;6.580;2023-06-22T12:15:45;27.30;94.00
56234;DHT22;42141;53.240;6.580;2023-06-22T12:18:11;27.30;94.30
56234;DHT22;42141;53.240;6.580;2023-06-22T12:20:36;27.30;94.10
56234;DHT22;42141;53.240;6.580;2023-06-22T12:23:02;27.20;94.10
56234;DHT22;42141;53.240;6.580;2023-06-22T12:25:28;27.10;94.10
56234;DHT22;42141;53.240;6.580;2023-06-22T12:27:54;27.10;94.30
56234;DHT22;42141;53.240;6.580;2023-06-22T12:30:19;27.00;94.30
56234;DHT22;42141;53.240;6.580;2023-06-22T12:32:45;26.90;94.30
56234;DHT22;42141;53.240;6.580;2023-06-22T12:35:11;26.80;94.40
56234;DHT22;42141;53.240;6.580;2023-06-22T12:37:41;26.60;94.70
56234;DHT22;42141;53.240;6.580;2023-06-22T12:40:07;26.70;94.80
56234;DHT22;42141;53.240;6.580;2023-06-22T12:42:33;26.70;94.80
56234;DHT22;42141;53.240;6.580;2023-06-22T12:44:59;26.60;94.70
56234;DHT22;42141;53.240;6.580;2023-06-22T12:47:24;26.50;94.50
56234;DHT22;42141;53.240;6.580;2023-06-22T12:49:50;26.40;94.60
56234;DHT22;42141;53.240;6.580;2023-06-22T12:52:16;26.30;94.70
56234;DHT22;42141;53.240;6.580;2023-06-22T12:54:43;26.20;94.60
56234;DHT22;42141;53.240;6.580;2023-06-22T12:57:08;26.10;94.80
56234;DHT22;42141;53.240;6.580;2023-06-22T12:59:34;25.90;94.80
56234;DHT22;42141;53.240;6.580;2023-06-22T13:02:00;25.80;94.90
56234;DHT22;42141;53.240;6.580;2023-06-22T13:04:25;25.80;95.10
56234;DHT22;42141;53.240;6.580;2023-06-22T13:06:51;25.80;95.20
56234;DHT22;42141;53.240;6.580;2023-06-22T13:09:18;25.80;95.10
56234;DHT22;42141;53.240;6.580;2023-06-22T13:11:44;25.70;95.00
56234;DHT22;42141;53.240;6.580;2023-06-22T13:14:10;25.70;94.90
56234;DHT22;42141;53.240;6.580;2023-06-22T13:16:36;25.60;94.80
56234;DHT22;42141;53.240;6.580;2023-06-22T13:19:01;25.60;94.70
56234;DHT22;42141;53.240;6.580;2023-06-22T13:21:27;25.50;94.40
56234;DHT22;42141;53.240;6.580;2023-06-22T13:23:53;25.30;94.40
56234;DHT22;42141;53.240;6.580;2023-06-22T13:26:18;25.20;94.40
56234;DHT22;42141;53.240;6.580;2023-06-22T13:28:44;25.10;94.50
56234;DHT22;42141;53.240;6.580;2023-06-22T13:31:10;25.10;94.60
56234;DHT22;42141;53.240;6.580;2023-06-22T13:33:37;25.00;94.50
56234;DHT22;42141;53.240;6.580;2023-06-22T13:36:03;25.10;94.70
56234;DHT22;42141;53.240;6.580;2023-06-22T13:38:29;25.10;94.80
56234;DHT22;42141;53.240;6.580;2023-06-22T13:40:56;25.20;94.80
56234;DHT22;42141;53.240;6.580;2023-06-22T13:43:24;25.20;94.50
56234;DHT22;42141;53.240;6.580;2023-06-22T13:45:49;25.20;94.50
56234;DHT22;42141;53.240;6.580;2023-06-22T13:48:15;25.10;94.50
56234;DHT22;42141;53.240;6.580;2023-06-22T13:50:41;25.10;94.50
56234;DHT22;42141;53.240;6.580;2023-06-22T13:53:07;25.00;94.50
56234;DHT22;42141;53.240;6.580;2023-06-22T13:55:32;24.90;94.40
56234;DHT22;42141;53.240;6.580;2023-06-22T13:57:58;24.80;94.50
56234;DHT22;42141;53.240;6.580;2023-06-22T14:00:24;24.70;94.60
56234;DHT22;42141;53.240;6.580;2023-06-22T14:02:49;24.60;94.70
56234;DHT22;42141;53.240;6.580;2023-06-22T14:05:16;24.50;95.00
56234;DHT22;42141;53.240;6.580;2023-06-22T14:07:42;24.40;95.10
56234;DHT22;42141;53.240;6.580;2023-06-22T14:10:07;24.40;95.20
56234;DHT22;42141;53.240;6.580;2023-06-22T14:12:33;24.40;95.30
56234;DHT22;42141;53.240;6.580;2023-06-22T14:14:59;24.20;95.20
56234;DHT22;42141;53.240;6.580;2023-06-22T14:17:25;24.10;95.40
56234;DHT22;42141;53.240;6.580;2023-06-22T14:19:52;24.00;95.60
56234;DHT22;42141;53.240;6.580;2023-06-22T14:22:21;23.90;95.60
56234;DHT22;42141;53.240;6.580;2023-06-22T14:24:48;23.90;95.60
56234;DHT22;42141;53.240;6.580;2023-06-22T14:27:13;23.80;95.70
56234;DHT22;42141;53.240;6.580;2023-06-22T14:29:39;23.80;95.80
56234;DHT22;42141;53.240;6.580;2023-06-22T14:32:05;23.80;95.80
56234;DHT22;42141;53.240;6.580;2023-06-22T14:34:35;23.80;95.60
56234;DHT22;42141;53.240;6.580;2023-06-22T14:37:07;23.80;95.70
56234;DHT22;42141;53.240;6.580;2023-06-22T14:39:38;23.70;95.30
56234;DHT22;42141;53.240;6.580;2023-06-22T14:42:08;23.70;95.20
56234;DHT22;42141;53.240;6.580;2023-06-22T14:44:34;23.60;95.10
56234;DHT22;42141;53.240;6.580;2023-06-22T14:47:03;23.60;95.20
56234;DHT22;42141;53.240;6.580;2023-06-22T14:49:29;23.60;95.10
56234;DHT22;42141;53.240;6.580;2023-06-22T14:51:55;23.60;95.10
56234;DHT22;42141;53.240;6.580;2023-06-22T14:54:21;23.50;95.00
56234;DHT22;42141;53.240;6.580;2023-06-22T14:56:48;23.40;94.90
56234;DHT22;42141;53.240;6.580;2023-06-22T14:59:13;23.30;94.80
56234;DHT22;42141;53.240;6.580;2023-06-22T15:01:39;23.20;94.80
56234;DHT22;42141;53.240;6.580;2023-06-22T15:04:05;23.20;94.90
56234;DHT22;42141;53.240;6.580;2023-06-22T15:06:31;23.20;94.90
56234;DHT22;42141;53.240;6.580;2023-06-22T15:08:57;23.20;95.00
56234;DHT22;42141;53.240;6.580;2023-06-22T15:11:22;23.20;95.10
56234;DHT22;42141;53.240;6.580;2023-06-22T15:13:48;23.20;95.10
56234;DHT22;42141;53.240;6.580;2023-06-22T15:16:14;23.40;95.10
56234;DHT22;42141;53.240;6.580;2023-06-22T15:18:40;23.30;95.00
56234;DHT22;42141;53.240;6.580;2023-06-22T15:21:07;23.20;94.90
56234;DHT22;42141;53.240;6.580;2023-06-22T15:23:33;23.10;94.70
56234;DHT22;42141;53.240;6.580;2023-06-22T15:26:01;23.10;94.70
56234;DHT22;42141;53.240;6.580;2023-06-22T15:28:28;22.90;94.60
56234;DHT22;42141;53.240;6.580;2023-06-22T15:30:54;22.90;94.80